SVA205 VNKT-OPSD
Flight info
| Callsign | SVA205 |
|---|---|
| Flight time | 2h 13m |
| Altitude | 38000 |
| Route | DARKE1F NARAN DCT HW DCT KNG DCT ATNUS DCT MESAR DCT KAGLO/N0490F390 DCT BUNGI DCT DELDA DCT BIREB |
| Aircraft | B744/H-SDE3FGHIM1M2RWXY/LB1 |
Departure
| Time | 2026-04-23 01:15 |
|---|---|
| Airport | Tribhuvan International Airport (VNKT) |
Arrival
| Time | 2026-04-23 03:28 |
|---|---|
| Airport | Skardu International Airport (OPSD) |
| Time | Latitude | Longitude | Altitude | Speed | Heading |
|---|---|---|---|---|---|
| 2026-04-23 00:31 | 27.69758 | 85.35747 | 4416 ft | 0 kts | 291° |
| 2026-04-23 00:52 | 27.69758 | 85.35748 | 4417 ft | 0 kts | 291° |
| 2026-04-23 00:52 | 27.69752 | 85.35757 | 4417 ft | 2 kts | 319° |
| 2026-04-23 00:52 | 27.69741 | 85.35768 | 4417 ft | 2 kts | 306° |
| 2026-04-23 00:53 | 27.69731 | 85.35781 | 4418 ft | 2 kts | 320° |
| 2026-04-23 00:53 | 27.69718 | 85.35790 | 4418 ft | 2 kts | 334° |
| 2026-04-23 00:53 | 27.69704 | 85.35796 | 4417 ft | 2 kts | 347° |
| 2026-04-23 00:53 | 27.69689 | 85.35798 | 4417 ft | 2 kts | 1° |
| 2026-04-23 00:54 | 27.69674 | 85.35796 | 4416 ft | 2 kts | 13° |
| 2026-04-23 00:54 | 27.69664 | 85.35792 | 4415 ft | 0 kts | 22° |
| 2026-04-23 00:54 | 27.69660 | 85.35791 | 4415 ft | 0 kts | 24° |
| 2026-04-23 01:07 | 27.69668 | 85.35794 | 4415 ft | 3 kts | 24° |
| 2026-04-23 01:07 | 27.69705 | 85.35813 | 4418 ft | 8 kts | 24° |
| 2026-04-23 01:08 | 27.69767 | 85.35844 | 4424 ft | 11 kts | 23° |
| 2026-04-23 01:08 | 27.69860 | 85.35890 | 4429 ft | 17 kts | 23° |
| 2026-04-23 01:08 | 27.69992 | 85.35949 | 4436 ft | 23 kts | 21° |
| 2026-04-23 01:08 | 27.70169 | 85.36032 | 4440 ft | 31 kts | 21° |
| 2026-04-23 01:09 | 27.70390 | 85.36132 | 4441 ft | 30 kts | 22° |
| 2026-04-23 01:09 | 27.70539 | 85.36201 | 4436 ft | 10 kts | 31° |
| 2026-04-23 01:09 | 27.70546 | 85.36206 | 4436 ft | 0 kts | 37° |
| 2026-04-23 01:11 | 27.70563 | 85.36230 | 4435 ft | 12 kts | 62° |
| 2026-04-23 01:11 | 27.70472 | 85.36288 | 4435 ft | 29 kts | 201° |
| 2026-04-23 01:11 | 27.70215 | 85.36169 | 4438 ft | 49 kts | 201° |
| 2026-04-23 01:12 | 27.69825 | 85.35997 | 4430 ft | 69 kts | 202° |
| 2026-04-23 01:12 | 27.69359 | 85.35787 | 4395 ft | 72 kts | 202° |
| 2026-04-23 01:12 | 27.68917 | 85.35581 | 4367 ft | 62 kts | 201° |
| 2026-04-23 01:12 | 27.68522 | 85.35403 | 4357 ft | 59 kts | 203° |
| 2026-04-23 01:13 | 27.68243 | 85.35217 | 4356 ft | 31 kts | 202° |
| 2026-04-23 01:13 | 27.68207 | 85.35241 | 4356 ft | 4 kts | 42° |
| 2026-04-23 01:13 | 27.68221 | 85.35253 | 4356 ft | 0 kts | 31° |
| 2026-04-23 01:13 | 27.68240 | 85.35265 | 4356 ft | 11 kts | 28° |
| 2026-04-23 01:14 | 27.68463 | 85.35371 | 4357 ft | 67 kts | 22° |
| 2026-04-23 01:14 | 27.69088 | 85.35655 | 4377 ft | 123 kts | 22° |
| 2026-04-23 01:14 | 27.70027 | 85.36098 | 4437 ft | 166 kts | 22° |
| 2026-04-23 01:14 | 27.71173 | 85.36594 | 4735 ft | 179 kts | 20° |
| 2026-04-23 01:15 | 27.72342 | 85.37156 | 5331 ft | 187 kts | 33° |
| 2026-04-23 01:15 | 27.73283 | 85.38214 | 5858 ft | 200 kts | 58° |
| 2026-04-23 01:15 | 27.73848 | 85.39687 | 6402 ft | 215 kts | 70° |
| 2026-04-23 01:15 | 27.74095 | 85.41447 | 6731 ft | 243 kts | 90° |
| 2026-04-23 01:16 | 27.73876 | 85.43402 | 7001 ft | 254 kts | 107° |
| 2026-04-23 01:16 | 27.73009 | 85.45222 | 7193 ft | 276 kts | 129° |
| 2026-04-23 01:16 | 27.71534 | 85.46648 | 7665 ft | 287 kts | 150° |
| 2026-04-23 01:16 | 27.69641 | 85.47443 | 8299 ft | 293 kts | 170° |
| 2026-04-23 01:17 | 27.67600 | 85.47464 | 8936 ft | 296 kts | 191° |
| 2026-04-23 01:17 | 27.65665 | 85.46716 | 9576 ft | 298 kts | 211° |
| 2026-04-23 01:17 | 27.64037 | 85.45257 | 10229 ft | 298 kts | 231° |
| 2026-04-23 01:17 | 27.62956 | 85.43312 | 10839 ft | 297 kts | 250° |
| 2026-04-23 01:18 | 27.62508 | 85.41046 | 11408 ft | 297 kts | 270° |
| 2026-04-23 01:18 | 27.62763 | 85.38744 | 11942 ft | 297 kts | 289° |
| 2026-04-23 01:18 | 27.63695 | 85.36655 | 12445 ft | 299 kts | 307° |
| 2026-04-23 01:18 | 27.65025 | 85.34837 | 12905 ft | 305 kts | 311° |
| 2026-04-23 01:19 | 27.66291 | 85.32897 | 13275 ft | 315 kts | 299° |
| 2026-04-23 01:19 | 27.67163 | 85.30570 | 13566 ft | 327 kts | 291° |
| 2026-04-23 01:19 | 27.67980 | 85.28137 | 13913 ft | 336 kts | 292° |
| 2026-04-23 01:19 | 27.68857 | 85.25671 | 14423 ft | 338 kts | 292° |
| 2026-04-23 01:20 | 27.69720 | 85.23163 | 14889 ft | 341 kts | 292° |
| 2026-04-23 01:20 | 27.70612 | 85.20686 | 15389 ft | 343 kts | 294° |
| 2026-04-23 01:20 | 27.71571 | 85.18208 | 15834 ft | 345 kts | 294° |
| 2026-04-23 01:20 | 27.72511 | 85.15717 | 16287 ft | 348 kts | 294° |
| 2026-04-23 01:21 | 27.73457 | 85.13219 | 16764 ft | 349 kts | 293° |
| 2026-04-23 01:21 | 27.74366 | 85.10683 | 17190 ft | 351 kts | 288° |
| 2026-04-23 01:21 | 27.74827 | 85.07949 | 17643 ft | 354 kts | 277° |
| 2026-04-23 01:21 | 27.75092 | 85.05171 | 18103 ft | 354 kts | 278° |
| 2026-04-23 01:22 | 27.75380 | 85.02573 | 18533 ft | 356 kts | 278° |
| 2026-04-23 01:22 | 27.75547 | 84.99766 | 18918 ft | 361 kts | 267° |
| 2026-04-23 01:22 | 27.75201 | 84.96961 | 19291 ft | 365 kts | 261° |
| 2026-04-23 01:22 | 27.74780 | 84.94119 | 19673 ft | 369 kts | 263° |
| 2026-04-23 01:23 | 27.74416 | 84.91250 | 20041 ft | 373 kts | 263° |
| 2026-04-23 01:23 | 27.74017 | 84.88314 | 20470 ft | 386 kts | 262° |
| 2026-04-23 01:23 | 27.73615 | 84.85312 | 21356 ft | 389 kts | 263° |
| 2026-04-23 01:23 | 27.73207 | 84.82265 | 22164 ft | 395 kts | 263° |
| 2026-04-23 01:24 | 27.72805 | 84.79225 | 22986 ft | 399 kts | 263° |
| 2026-04-23 01:24 | 27.72395 | 84.76116 | 23849 ft | 402 kts | 263° |
| 2026-04-23 01:24 | 27.71978 | 84.73017 | 24661 ft | 405 kts | 263° |
| 2026-04-23 01:24 | 27.71554 | 84.69849 | 25443 ft | 408 kts | 264° |
| 2026-04-23 01:25 | 27.71303 | 84.67895 | 25923 ft | 409 kts | 264° |
| 2026-04-23 01:25 | 27.71123 | 84.66569 | 26230 ft | 410 kts | 263° |
| 2026-04-23 01:25 | 27.70688 | 84.63396 | 26936 ft | 413 kts | 263° |
| 2026-04-23 01:25 | 27.70253 | 84.60179 | 27642 ft | 416 kts | 264° |
| 2026-04-23 01:26 | 27.69821 | 84.56983 | 28290 ft | 418 kts | 264° |
| 2026-04-23 01:26 | 27.69382 | 84.53722 | 28950 ft | 420 kts | 264° |
| 2026-04-23 01:26 | 27.68936 | 84.50455 | 29520 ft | 423 kts | 264° |
| 2026-04-23 01:26 | 27.68489 | 84.47173 | 30123 ft | 425 kts | 264° |
| 2026-04-23 01:27 | 27.68059 | 84.43891 | 30705 ft | 426 kts | 265° |
| 2026-04-23 01:27 | 27.67677 | 84.40569 | 31265 ft | 425 kts | 270° |
| 2026-04-23 01:27 | 27.67822 | 84.37270 | 31768 ft | 422 kts | 283° |
| 2026-04-23 01:27 | 27.68683 | 84.34090 | 32302 ft | 420 kts | 296° |
| 2026-04-23 01:28 | 27.70089 | 84.31217 | 32845 ft | 418 kts | 301° |
| 2026-04-23 01:28 | 27.71430 | 84.28322 | 33302 ft | 421 kts | 295° |
| 2026-04-23 01:28 | 27.72592 | 84.25270 | 33749 ft | 423 kts | 293° |
| 2026-04-23 01:28 | 27.73682 | 84.22178 | 34179 ft | 425 kts | 292° |
| 2026-04-23 01:29 | 27.74723 | 84.19070 | 34573 ft | 428 kts | 291° |
| 2026-04-23 01:29 | 27.75736 | 84.15908 | 34932 ft | 431 kts | 290° |
| 2026-04-23 01:29 | 27.76735 | 84.12691 | 35317 ft | 433 kts | 289° |
| 2026-04-23 01:29 | 27.77707 | 84.09481 | 35671 ft | 435 kts | 289° |
| 2026-04-23 01:30 | 27.78679 | 84.06243 | 35991 ft | 437 kts | 289° |
| 2026-04-23 01:30 | 27.79634 | 84.03008 | 36324 ft | 439 kts | 288° |
| 2026-04-23 01:30 | 27.80596 | 83.99722 | 36639 ft | 440 kts | 288° |
| 2026-04-23 01:30 | 27.81561 | 83.96455 | 36906 ft | 439 kts | 288° |
| 2026-04-23 01:31 | 27.82512 | 83.93199 | 37011 ft | 436 kts | 288° |
| 2026-04-23 01:31 | 27.83453 | 83.89944 | 37026 ft | 433 kts | 288° |
| 2026-04-23 01:31 | 27.85312 | 83.83491 | 37022 ft | 433 kts | 288° |
| 2026-04-23 01:32 | 27.87191 | 83.76987 | 37036 ft | 434 kts | 288° |
| 2026-04-23 01:32 | 27.89064 | 83.70501 | 37028 ft | 434 kts | 288° |
| 2026-04-23 01:33 | 27.90928 | 83.64017 | 37016 ft | 434 kts | 288° |
| 2026-04-23 01:33 | 27.92794 | 83.57512 | 37014 ft | 434 kts | 288° |
| 2026-04-23 01:34 | 27.94669 | 83.50986 | 37042 ft | 444 kts | 288° |
| 2026-04-23 01:34 | 27.96569 | 83.44323 | 37061 ft | 441 kts | 288° |
| 2026-04-23 01:35 | 27.98440 | 83.37753 | 37025 ft | 436 kts | 288° |
| 2026-04-23 01:35 | 28.00306 | 83.31214 | 37071 ft | 444 kts | 287° |
| 2026-04-23 01:36 | 28.02204 | 83.24535 | 37075 ft | 441 kts | 287° |
| 2026-04-23 01:36 | 28.04067 | 83.17973 | 37066 ft | 436 kts | 287° |
| 2026-04-23 01:37 | 28.05774 | 83.11960 | 37129 ft | 443 kts | 287° |
| 2026-04-23 01:38 | 28.06091 | 83.10842 | 37143 ft | 445 kts | 287° |
| 2026-04-23 01:39 | 28.07984 | 83.04144 | 37122 ft | 441 kts | 287° |
| 2026-04-23 01:39 | 28.09832 | 82.97560 | 37096 ft | 436 kts | 287° |
| 2026-04-23 01:40 | 28.11681 | 82.90982 | 37154 ft | 445 kts | 287° |
| 2026-04-23 01:40 | 28.13554 | 82.84325 | 37132 ft | 442 kts | 287° |
| 2026-04-23 01:41 | 28.15401 | 82.77737 | 37081 ft | 437 kts | 287° |
| 2026-04-23 01:41 | 28.17252 | 82.71094 | 37146 ft | 449 kts | 287° |
| 2026-04-23 01:42 | 28.19150 | 82.64310 | 37149 ft | 445 kts | 287° |
| 2026-04-23 01:42 | 28.20983 | 82.57713 | 37119 ft | 438 kts | 287° |
| 2026-04-23 01:43 | 28.22851 | 82.51002 | 37209 ft | 452 kts | 287° |
| 2026-04-23 01:43 | 28.24750 | 82.44150 | 37235 ft | 446 kts | 287° |
| 2026-04-23 01:44 | 28.26588 | 82.37516 | 37183 ft | 442 kts | 287° |
| 2026-04-23 01:44 | 28.28417 | 82.30876 | 37209 ft | 442 kts | 287° |
| 2026-04-23 01:45 | 28.30259 | 82.24197 | 37239 ft | 443 kts | 287° |
| 2026-04-23 01:45 | 28.32105 | 82.17474 | 37201 ft | 445 kts | 287° |
| 2026-04-23 01:46 | 28.33923 | 82.10826 | 37176 ft | 441 kts | 287° |
| 2026-04-23 01:46 | 28.35777 | 82.04114 | 37276 ft | 454 kts | 287° |
| 2026-04-23 01:47 | 28.37649 | 81.97266 | 37098 ft | 449 kts | 287° |
| 2026-04-23 01:47 | 28.39479 | 81.90547 | 37021 ft | 442 kts | 287° |
| 2026-04-23 01:48 | 28.41332 | 81.83723 | 37078 ft | 456 kts | 287° |
| 2026-04-23 01:48 | 28.43177 | 81.76903 | 37022 ft | 447 kts | 287° |
| 2026-04-23 01:49 | 28.45009 | 81.70137 | 36979 ft | 445 kts | 287° |
| 2026-04-23 01:49 | 28.46819 | 81.63433 | 37018 ft | 445 kts | 287° |
| 2026-04-23 01:50 | 28.48661 | 81.56619 | 37070 ft | 457 kts | 287° |
| 2026-04-23 01:50 | 28.50519 | 81.49711 | 37068 ft | 449 kts | 287° |
| 2026-04-23 01:51 | 28.52353 | 81.42875 | 37039 ft | 447 kts | 287° |
| 2026-04-23 01:51 | 28.54182 | 81.36047 | 37011 ft | 446 kts | 287° |
| 2026-04-23 01:52 | 28.55985 | 81.29295 | 36962 ft | 446 kts | 287° |
| 2026-04-23 01:52 | 28.57787 | 81.22536 | 36903 ft | 447 kts | 287° |
| 2026-04-23 01:53 | 28.59582 | 81.15789 | 36873 ft | 447 kts | 287° |
| 2026-04-23 01:53 | 28.61396 | 81.08952 | 36901 ft | 460 kts | 287° |
| 2026-04-23 01:54 | 28.63221 | 81.02062 | 36875 ft | 452 kts | 287° |
| 2026-04-23 01:54 | 28.65023 | 80.95257 | 36835 ft | 448 kts | 287° |
| 2026-04-23 01:55 | 28.66811 | 80.88475 | 36850 ft | 448 kts | 286° |
| 2026-04-23 01:55 | 28.68604 | 80.81664 | 36849 ft | 449 kts | 286° |
| 2026-04-23 01:56 | 28.70392 | 80.74854 | 36849 ft | 449 kts | 286° |
| 2026-04-23 01:56 | 28.72162 | 80.68090 | 36849 ft | 448 kts | 286° |
| 2026-04-23 01:57 | 28.73938 | 80.61293 | 36844 ft | 448 kts | 286° |
| 2026-04-23 01:57 | 28.75730 | 80.54416 | 36873 ft | 461 kts | 287° |
| 2026-04-23 01:58 | 28.77544 | 80.47444 | 36833 ft | 452 kts | 286° |
| 2026-04-23 01:58 | 28.79329 | 80.40575 | 36831 ft | 449 kts | 286° |
| 2026-04-23 01:59 | 28.81127 | 80.33630 | 36890 ft | 459 kts | 286° |
| 2026-04-23 01:59 | 28.82929 | 80.26660 | 36848 ft | 450 kts | 286° |
| 2026-04-23 02:00 | 28.84683 | 80.19846 | 36825 ft | 449 kts | 286° |
| 2026-04-23 02:00 | 28.86437 | 80.13020 | 36830 ft | 449 kts | 286° |
| 2026-04-23 02:01 | 28.88217 | 80.06093 | 36864 ft | 459 kts | 286° |
| 2026-04-23 02:01 | 28.89989 | 79.99168 | 36823 ft | 452 kts | 286° |
| 2026-04-23 02:02 | 28.91738 | 79.92321 | 36798 ft | 448 kts | 286° |
| 2026-04-23 02:02 | 28.93502 | 79.85404 | 36848 ft | 460 kts | 286° |
| 2026-04-23 02:03 | 28.95273 | 79.78436 | 36808 ft | 450 kts | 286° |
| 2026-04-23 02:03 | 28.97017 | 79.71564 | 36799 ft | 448 kts | 286° |
| 2026-04-23 02:04 | 28.98776 | 79.64613 | 36848 ft | 460 kts | 286° |
| 2026-04-23 02:04 | 29.01683 | 79.53116 | 36769 ft | 452 kts | 285° |
| 2026-04-23 02:05 | 29.04083 | 79.46583 | 36738 ft | 450 kts | 304° |
| 2026-04-23 02:05 | 29.07821 | 79.42354 | 36843 ft | 461 kts | 321° |
| 2026-04-23 02:05 | 29.13125 | 79.37465 | 36890 ft | 464 kts | 318° |
| 2026-04-23 02:06 | 29.17389 | 79.33356 | 36834 ft | 453 kts | 318° |
| 2026-04-23 02:06 | 29.27761 | 79.23193 | 36876 ft | 454 kts | 317° |
| 2026-04-23 02:06 | 29.32805 | 79.18224 | 36948 ft | 461 kts | 317° |
| 2026-04-23 02:07 | 29.37632 | 79.13460 | 36938 ft | 456 kts | 317° |
| 2026-04-23 02:07 | 29.42433 | 79.08714 | 36973 ft | 457 kts | 317° |
| 2026-04-23 02:08 | 29.47254 | 79.03943 | 36982 ft | 457 kts | 317° |
| 2026-04-23 02:08 | 29.52084 | 78.99159 | 36980 ft | 455 kts | 317° |
| 2026-04-23 02:09 | 29.56855 | 78.94424 | 36996 ft | 459 kts | 317° |
| 2026-04-23 02:09 | 29.61723 | 78.89582 | 37037 ft | 463 kts | 317° |
| 2026-04-23 02:10 | 29.66552 | 78.84776 | 36994 ft | 455 kts | 317° |
| 2026-04-23 02:10 | 29.71342 | 78.80004 | 37018 ft | 460 kts | 317° |
| 2026-04-23 02:11 | 29.76203 | 78.75153 | 37049 ft | 464 kts | 317° |
| 2026-04-23 02:11 | 29.81017 | 78.70342 | 36993 ft | 455 kts | 317° |
| 2026-04-23 02:12 | 29.85806 | 78.65552 | 37043 ft | 459 kts | 317° |
| 2026-04-23 02:12 | 29.90674 | 78.60676 | 37115 ft | 465 kts | 317° |
| 2026-04-23 02:13 | 29.95483 | 78.55854 | 37059 ft | 457 kts | 317° |
| 2026-04-23 02:13 | 30.00286 | 78.51029 | 37084 ft | 455 kts | 317° |
| 2026-04-23 02:14 | 30.05055 | 78.46231 | 37091 ft | 460 kts | 317° |
| 2026-04-23 02:14 | 30.09920 | 78.41331 | 37054 ft | 462 kts | 317° |
| 2026-04-23 02:15 | 30.17114 | 78.34067 | 36968 ft | 454 kts | 317° |
| 2026-04-23 02:16 | 30.21934 | 78.29201 | 37017 ft | 466 kts | 317° |
| 2026-04-23 02:16 | 30.26764 | 78.24316 | 36933 ft | 456 kts | 317° |
| 2026-04-23 02:17 | 30.31539 | 78.19476 | 36943 ft | 454 kts | 317° |
| 2026-04-23 02:17 | 30.36333 | 78.14610 | 37036 ft | 466 kts | 317° |
| 2026-04-23 02:18 | 30.41182 | 78.09682 | 37023 ft | 456 kts | 317° |
| 2026-04-23 02:18 | 30.45911 | 78.04874 | 37050 ft | 452 kts | 317° |
| 2026-04-23 02:19 | 30.50712 | 77.99977 | 37141 ft | 465 kts | 317° |
| 2026-04-23 02:19 | 30.55532 | 77.95059 | 37123 ft | 455 kts | 317° |
| 2026-04-23 02:20 | 30.60317 | 77.90173 | 37123 ft | 453 kts | 317° |
| 2026-04-23 02:20 | 30.63007 | 77.87425 | 37170 ft | 459 kts | 318° |
| 2026-04-23 02:21 | 30.64759 | 77.85628 | 37205 ft | 464 kts | 317° |
| 2026-04-23 02:22 | 30.66809 | 77.83524 | 37232 ft | 466 kts | 318° |
| 2026-04-23 02:22 | 30.67867 | 77.82443 | 37225 ft | 463 kts | 318° |
| 2026-04-23 02:23 | 30.72644 | 77.77550 | 37176 ft | 455 kts | 318° |
| 2026-04-23 02:23 | 30.77399 | 77.72664 | 37236 ft | 461 kts | 318° |
| 2026-04-23 02:24 | 30.82250 | 77.67677 | 37279 ft | 461 kts | 318° |
| 2026-04-23 02:24 | 30.87014 | 77.62779 | 37234 ft | 454 kts | 318° |
| 2026-04-23 02:25 | 30.91755 | 77.57885 | 37284 ft | 462 kts | 318° |
| 2026-04-23 02:25 | 30.96603 | 77.52881 | 37310 ft | 462 kts | 318° |
| 2026-04-23 02:26 | 31.01365 | 77.47956 | 37263 ft | 455 kts | 318° |
| 2026-04-23 02:26 | 31.06106 | 77.43054 | 37309 ft | 463 kts | 318° |
| 2026-04-23 02:27 | 31.10978 | 77.38006 | 37284 ft | 463 kts | 318° |
| 2026-04-23 02:27 | 31.15707 | 77.33097 | 37179 ft | 454 kts | 317° |
| 2026-04-23 02:28 | 31.20472 | 77.28140 | 37205 ft | 463 kts | 317° |
| 2026-04-23 02:28 | 31.25302 | 77.23109 | 37149 ft | 464 kts | 317° |
| 2026-04-23 02:29 | 31.30072 | 77.18137 | 37063 ft | 454 kts | 317° |
| 2026-04-23 02:29 | 31.34811 | 77.13189 | 37189 ft | 464 kts | 317° |
| 2026-04-23 02:30 | 31.39656 | 77.08122 | 37277 ft | 465 kts | 318° |
| 2026-04-23 02:30 | 31.44441 | 77.03118 | 37241 ft | 455 kts | 317° |
| 2026-04-23 02:31 | 31.49171 | 76.98158 | 37297 ft | 464 kts | 317° |
| 2026-04-23 02:31 | 31.53990 | 76.93100 | 37282 ft | 463 kts | 317° |
| 2026-04-23 02:32 | 31.58752 | 76.88090 | 37181 ft | 454 kts | 317° |
| 2026-04-23 02:32 | 31.63459 | 76.83134 | 37204 ft | 465 kts | 317° |
| 2026-04-23 02:33 | 31.68320 | 76.78005 | 37180 ft | 464 kts | 317° |
| 2026-04-23 02:33 | 31.73062 | 76.73001 | 37099 ft | 455 kts | 317° |
| 2026-04-23 02:34 | 31.77794 | 76.67996 | 37119 ft | 461 kts | 317° |
| 2026-04-23 02:34 | 31.82579 | 76.62933 | 37128 ft | 461 kts | 317° |
| 2026-04-23 02:35 | 31.87342 | 76.57881 | 37060 ft | 457 kts | 317° |
| 2026-04-23 02:35 | 31.92102 | 76.52824 | 37047 ft | 457 kts | 317° |
| 2026-04-23 02:36 | 31.96827 | 76.47794 | 37070 ft | 465 kts | 317° |
| 2026-04-23 02:36 | 32.01646 | 76.42664 | 37060 ft | 463 kts | 317° |
| 2026-04-23 02:37 | 32.06399 | 76.37594 | 37005 ft | 457 kts | 317° |
| 2026-04-23 02:37 | 32.11132 | 76.32546 | 37071 ft | 465 kts | 316° |
| 2026-04-23 02:38 | 32.16009 | 76.27306 | 37062 ft | 465 kts | 316° |
| 2026-04-23 02:38 | 32.20248 | 76.21696 | 36990 ft | 458 kts | 309° |
| 2026-04-23 02:39 | 32.24392 | 76.15990 | 37017 ft | 457 kts | 309° |
| 2026-04-23 02:39 | 32.28576 | 76.10196 | 37090 ft | 468 kts | 309° |
| 2026-04-23 02:40 | 32.32763 | 76.04385 | 37096 ft | 459 kts | 309° |
| 2026-04-23 02:40 | 32.36906 | 75.98626 | 37118 ft | 456 kts | 309° |
| 2026-04-23 02:41 | 32.41023 | 75.92891 | 37140 ft | 457 kts | 309° |
| 2026-04-23 02:41 | 32.45218 | 75.87038 | 37196 ft | 470 kts | 309° |
| 2026-04-23 02:42 | 32.49401 | 75.81201 | 37125 ft | 459 kts | 309° |
| 2026-04-23 02:42 | 32.53510 | 75.75444 | 37081 ft | 457 kts | 309° |
| 2026-04-23 02:43 | 32.57662 | 75.69619 | 37146 ft | 468 kts | 309° |
| 2026-04-23 02:43 | 32.61848 | 75.63745 | 37159 ft | 460 kts | 309° |
| 2026-04-23 02:44 | 32.65976 | 75.57948 | 37185 ft | 457 kts | 309° |
| 2026-04-23 02:44 | 32.70067 | 75.52181 | 37209 ft | 457 kts | 309° |
| 2026-04-23 02:45 | 32.74876 | 75.47246 | 37161 ft | 462 kts | 331° |
| 2026-04-23 02:45 | 32.77873 | 75.45809 | 37178 ft | 465 kts | 343° |
| 2026-04-23 02:45 | 32.81046 | 75.44968 | 37225 ft | 466 kts | 346° |
| 2026-04-23 02:46 | 32.87339 | 75.43118 | 37252 ft | 468 kts | 344° |
| 2026-04-23 02:46 | 32.93690 | 75.41156 | 37249 ft | 465 kts | 343° |
| 2026-04-23 02:47 | 32.99967 | 75.39183 | 37273 ft | 466 kts | 343° |
| 2026-04-23 02:47 | 33.06237 | 75.37199 | 37284 ft | 467 kts | 343° |
| 2026-04-23 02:48 | 33.12540 | 75.35195 | 37281 ft | 468 kts | 343° |
| 2026-04-23 02:48 | 33.18814 | 75.33200 | 37277 ft | 466 kts | 343° |
| 2026-04-23 02:49 | 33.25091 | 75.31192 | 37277 ft | 465 kts | 342° |
| 2026-04-23 02:49 | 33.31422 | 75.29171 | 37343 ft | 476 kts | 342° |
| 2026-04-23 02:50 | 33.37835 | 75.27123 | 37328 ft | 469 kts | 342° |
| 2026-04-23 02:50 | 33.44129 | 75.25104 | 37323 ft | 466 kts | 342° |
| 2026-04-23 02:51 | 33.50207 | 75.22317 | 37366 ft | 469 kts | 324° |
| 2026-04-23 02:51 | 33.52750 | 75.19893 | 37437 ft | 469 kts | 312° |
| 2026-04-23 02:51 | 33.54885 | 75.16956 | 37463 ft | 461 kts | 307° |
| 2026-04-23 02:52 | 33.59080 | 75.11192 | 37391 ft | 456 kts | 309° |
| 2026-04-23 02:52 | 33.63340 | 75.05442 | 37394 ft | 467 kts | 309° |
| 2026-04-23 02:53 | 33.67660 | 74.99650 | 37329 ft | 462 kts | 309° |
| 2026-04-23 02:53 | 33.71913 | 74.93945 | 37263 ft | 455 kts | 309° |
| 2026-04-23 02:54 | 33.76157 | 74.88246 | 37298 ft | 466 kts | 309° |
| 2026-04-23 02:54 | 33.80512 | 74.82391 | 37276 ft | 463 kts | 309° |
| 2026-04-23 02:55 | 33.84751 | 74.76681 | 37219 ft | 458 kts | 309° |
| 2026-04-23 02:55 | 33.88999 | 74.70955 | 37222 ft | 457 kts | 309° |
| 2026-04-23 02:56 | 33.93251 | 74.65216 | 37284 ft | 467 kts | 309° |
| 2026-04-23 02:56 | 33.97578 | 74.59354 | 37268 ft | 460 kts | 309° |
| 2026-04-23 02:57 | 34.01809 | 74.53638 | 37283 ft | 455 kts | 309° |
| 2026-04-23 02:57 | 34.06084 | 74.47830 | 37411 ft | 467 kts | 309° |
| 2026-04-23 02:58 | 34.10397 | 74.41966 | 37411 ft | 461 kts | 308° |
| 2026-04-23 02:58 | 34.14599 | 74.36236 | 37369 ft | 455 kts | 309° |
| 2026-04-23 02:59 | 34.18870 | 74.30417 | 37440 ft | 467 kts | 308° |
| 2026-04-23 02:59 | 34.23168 | 74.24545 | 37438 ft | 460 kts | 308° |
| 2026-04-23 03:00 | 34.27375 | 74.18782 | 37407 ft | 456 kts | 308° |
| 2026-04-23 03:00 | 34.31623 | 74.12967 | 37519 ft | 467 kts | 308° |
| 2026-04-23 03:01 | 34.35905 | 74.07101 | 37523 ft | 461 kts | 308° |
| 2026-04-23 03:01 | 34.40136 | 74.01263 | 37524 ft | 457 kts | 307° |
| 2026-04-23 03:02 | 34.44324 | 73.95505 | 37546 ft | 458 kts | 307° |
| 2026-04-23 03:02 | 34.48574 | 73.89638 | 37595 ft | 469 kts | 308° |
| 2026-04-23 03:03 | 34.52848 | 73.83727 | 37546 ft | 459 kts | 307° |
| 2026-04-23 03:03 | 34.57065 | 73.77895 | 37514 ft | 456 kts | 307° |
| 2026-04-23 03:04 | 34.61294 | 73.72025 | 37620 ft | 469 kts | 307° |
| 2026-04-23 03:04 | 34.65560 | 73.66099 | 37551 ft | 458 kts | 307° |
| 2026-04-23 03:05 | 34.69707 | 73.60339 | 37512 ft | 455 kts | 307° |
| 2026-04-23 03:05 | 34.73914 | 73.54475 | 37567 ft | 469 kts | 308° |
| 2026-04-23 03:05 | 34.76335 | 73.51753 | 37517 ft | 470 kts | 320° |
| 2026-04-23 03:06 | 34.79154 | 73.49757 | 37498 ft | 471 kts | 333° |
| 2026-04-23 03:06 | 34.82261 | 73.48554 | 37498 ft | 476 kts | 346° |
| 2026-04-23 03:06 | 34.85625 | 73.48180 | 37522 ft | 485 kts | 359° |
| 2026-04-23 03:06 | 34.89006 | 73.48682 | 37588 ft | 499 kts | 11° |
| 2026-04-23 03:07 | 34.92311 | 73.50040 | 37632 ft | 510 kts | 23° |
| 2026-04-23 03:07 | 34.95383 | 73.52215 | 37618 ft | 504 kts | 36° |
| 2026-04-23 03:07 | 34.97982 | 73.55062 | 37566 ft | 499 kts | 49° |
| 2026-04-23 03:07 | 34.99999 | 73.58425 | 37544 ft | 496 kts | 62° |
| 2026-04-23 03:08 | 35.01399 | 73.62219 | 37571 ft | 495 kts | 74° |
| 2026-04-23 03:08 | 35.02127 | 73.66357 | 37610 ft | 499 kts | 86° |
| 2026-04-23 03:08 | 35.02376 | 73.70608 | 37680 ft | 504 kts | 86° |
| 2026-04-23 03:08 | 35.03068 | 73.74737 | 37632 ft | 501 kts | 73° |
| 2026-04-23 03:09 | 35.04424 | 73.78655 | 37633 ft | 497 kts | 63° |
| 2026-04-23 03:09 | 35.06154 | 73.82246 | 37444 ft | 492 kts | 57° |
| 2026-04-23 03:09 | 35.08100 | 73.85597 | 37050 ft | 480 kts | 53° |
| 2026-04-23 03:09 | 35.10144 | 73.88753 | 36607 ft | 466 kts | 51° |
| 2026-04-23 03:10 | 35.12212 | 73.91756 | 36197 ft | 463 kts | 50° |
| 2026-04-23 03:10 | 35.14328 | 73.94728 | 35853 ft | 464 kts | 49° |
| 2026-04-23 03:10 | 35.16478 | 73.97680 | 35520 ft | 467 kts | 48° |
| 2026-04-23 03:10 | 35.18668 | 74.00637 | 35189 ft | 470 kts | 47° |
| 2026-04-23 03:11 | 35.20857 | 74.03571 | 34853 ft | 472 kts | 47° |
| 2026-04-23 03:11 | 35.23083 | 74.06530 | 34510 ft | 473 kts | 47° |
| 2026-04-23 03:11 | 35.25313 | 74.09480 | 34167 ft | 473 kts | 47° |
| 2026-04-23 03:11 | 35.27551 | 74.12439 | 33815 ft | 475 kts | 47° |
| 2026-04-23 03:12 | 35.29808 | 74.15431 | 33369 ft | 476 kts | 47° |
| 2026-04-23 03:12 | 35.32026 | 74.18365 | 32837 ft | 470 kts | 47° |
| 2026-04-23 03:12 | 35.34226 | 74.21283 | 32274 ft | 459 kts | 47° |
| 2026-04-23 03:12 | 35.36372 | 74.24114 | 31711 ft | 449 kts | 46° |
| 2026-04-23 03:13 | 35.38470 | 74.26893 | 31167 ft | 447 kts | 46° |
| 2026-04-23 03:13 | 35.40580 | 74.29691 | 30679 ft | 450 kts | 46° |
| 2026-04-23 03:13 | 35.42717 | 74.32518 | 30225 ft | 452 kts | 46° |
| 2026-04-23 03:13 | 35.44837 | 74.35319 | 29782 ft | 452 kts | 46° |
| 2026-04-23 03:14 | 35.46983 | 74.38165 | 29332 ft | 452 kts | 46° |
| 2026-04-23 03:14 | 35.49090 | 74.40949 | 28899 ft | 452 kts | 46° |
| 2026-04-23 03:14 | 35.51256 | 74.43816 | 28457 ft | 452 kts | 46° |
| 2026-04-23 03:14 | 35.53394 | 74.46655 | 28018 ft | 453 kts | 46° |
| 2026-04-23 03:15 | 35.55514 | 74.49468 | 27591 ft | 454 kts | 46° |
| 2026-04-23 03:15 | 35.57669 | 74.52333 | 27164 ft | 453 kts | 46° |
| 2026-04-23 03:15 | 35.59782 | 74.55161 | 26743 ft | 453 kts | 46° |
| 2026-04-23 03:15 | 35.61921 | 74.58032 | 26323 ft | 453 kts | 47° |
| 2026-04-23 03:16 | 35.63834 | 74.61083 | 25855 ft | 456 kts | 59° |
| 2026-04-23 03:16 | 35.65342 | 74.64451 | 25466 ft | 455 kts | 61° |
| 2026-04-23 03:16 | 35.68453 | 74.71228 | 24696 ft | 454 kts | 61° |
| 2026-04-23 03:17 | 35.69978 | 74.74663 | 24304 ft | 456 kts | 65° |
| 2026-04-23 03:17 | 35.70921 | 74.78329 | 23922 ft | 452 kts | 82° |
| 2026-04-23 03:17 | 35.70941 | 74.82142 | 23736 ft | 443 kts | 100° |
| 2026-04-23 03:17 | 35.70121 | 74.85732 | 23715 ft | 424 kts | 111° |
| 2026-04-23 03:18 | 35.69190 | 74.89044 | 23705 ft | 405 kts | 109° |
| 2026-04-23 03:18 | 35.68348 | 74.92339 | 23656 ft | 402 kts | 109° |
| 2026-04-23 03:18 | 35.67525 | 74.95646 | 23415 ft | 402 kts | 108° |
| 2026-04-23 03:18 | 35.66714 | 74.98917 | 22983 ft | 403 kts | 109° |
| 2026-04-23 03:19 | 35.65917 | 75.02154 | 22341 ft | 399 kts | 108° |
| 2026-04-23 03:19 | 35.65117 | 75.05379 | 21933 ft | 387 kts | 109° |
| 2026-04-23 03:19 | 35.64295 | 75.08501 | 21224 ft | 386 kts | 110° |
| 2026-04-23 03:19 | 35.63461 | 75.11582 | 20888 ft | 372 kts | 109° |
| 2026-04-23 03:20 | 35.62700 | 75.14595 | 20749 ft | 372 kts | 108° |
| 2026-04-23 03:20 | 35.61951 | 75.17651 | 20751 ft | 376 kts | 108° |
| 2026-04-23 03:20 | 35.61184 | 75.20717 | 20761 ft | 378 kts | 108° |
| 2026-04-23 03:20 | 35.60416 | 75.23792 | 20903 ft | 379 kts | 109° |
| 2026-04-23 03:21 | 35.59629 | 75.26891 | 21231 ft | 381 kts | 108° |
| 2026-04-23 03:21 | 35.58835 | 75.30039 | 21439 ft | 390 kts | 111° |
| 2026-04-23 03:21 | 35.57640 | 75.33041 | 21032 ft | 390 kts | 127° |
| 2026-04-23 03:21 | 35.55878 | 75.35466 | 20460 ft | 380 kts | 138° |
| 2026-04-23 03:22 | 35.53889 | 75.37611 | 19530 ft | 381 kts | 141° |
| 2026-04-23 03:22 | 35.51900 | 75.39713 | 18524 ft | 385 kts | 139° |
| 2026-04-23 03:22 | 35.49944 | 75.41885 | 17658 ft | 382 kts | 140° |
| 2026-04-23 03:22 | 35.47887 | 75.43983 | 16798 ft | 378 kts | 143° |
| 2026-04-23 03:23 | 35.45806 | 75.45875 | 16085 ft | 372 kts | 142° |
| 2026-04-23 03:23 | 35.43752 | 75.47736 | 15455 ft | 363 kts | 143° |
| 2026-04-23 03:23 | 35.41731 | 75.49565 | 14743 ft | 359 kts | 142° |
| 2026-04-23 03:23 | 35.39795 | 75.51437 | 14058 ft | 354 kts | 137° |
| 2026-04-23 03:24 | 35.38161 | 75.53595 | 13442 ft | 344 kts | 126° |
| 2026-04-23 03:24 | 35.36932 | 75.56054 | 12238 ft | 333 kts | 113° |
| 2026-04-23 03:24 | 35.36268 | 75.58605 | 11512 ft | 306 kts | 99° |
| 2026-04-23 03:24 | 35.35981 | 75.61093 | 10966 ft | 288 kts | 94° |
| 2026-04-23 03:25 | 35.35886 | 75.63466 | 10683 ft | 271 kts | 98° |
| 2026-04-23 03:25 | 35.35263 | 75.65588 | 10509 ft | 264 kts | 127° |
| 2026-04-23 03:25 | 35.33832 | 75.66974 | 10316 ft | 266 kts | 160° |
| 2026-04-23 03:25 | 35.32034 | 75.67236 | 10183 ft | 266 kts | 192° |
| 2026-04-23 03:26 | 35.30373 | 75.66232 | 9835 ft | 274 kts | 222° |
| 2026-04-23 03:26 | 35.29189 | 75.64420 | 9354 ft | 268 kts | 243° |
| 2026-04-23 03:26 | 35.28572 | 75.62427 | 9334 ft | 231 kts | 255° |
| 2026-04-23 03:26 | 35.28313 | 75.60616 | 9258 ft | 206 kts | 271° |
| 2026-04-23 03:27 | 35.28517 | 75.58957 | 9073 ft | 196 kts | 291° |
| 2026-04-23 03:27 | 35.29261 | 75.57581 | 8864 ft | 196 kts | 315° |
| 2026-04-23 03:27 | 35.30336 | 75.56539 | 8392 ft | 201 kts | 329° |
| 2026-04-23 03:27 | 35.31525 | 75.55706 | 7965 ft | 191 kts | 329° |
| 2026-04-23 03:28 | 35.32645 | 75.54814 | 7595 ft | 192 kts | 328° |
| 2026-04-23 03:28 | 35.33698 | 75.53988 | 7563 ft | 152 kts | 328° |
| 2026-04-23 03:28 | 35.34393 | 75.53438 | 7544 ft | 85 kts | 327° |
| 2026-04-23 03:28 | 35.34732 | 75.53257 | 7535 ft | 23 kts | 354° |
| 2026-04-23 03:29 | 35.34810 | 75.53247 | 7532 ft | 14 kts | 355° |
| 2026-04-23 03:29 | 35.34961 | 75.53243 | 7527 ft | 29 kts | 1° |
| 2026-04-23 03:29 | 35.35018 | 75.53289 | 7528 ft | 13 kts | 137° |
| 2026-04-23 03:29 | 35.34914 | 75.53374 | 7531 ft | 23 kts | 147° |
| 2026-04-23 03:30 | 35.34751 | 75.53503 | 7535 ft | 33 kts | 146° |
| 2026-04-23 03:30 | 35.34530 | 75.53685 | 7540 ft | 42 kts | 147° |
| 2026-04-23 03:30 | 35.34251 | 75.53903 | 7542 ft | 52 kts | 148° |
| 2026-04-23 03:30 | 35.33938 | 75.54154 | 7544 ft | 52 kts | 144° |
| 2026-04-23 03:31 | 35.33672 | 75.54418 | 7544 ft | 41 kts | 139° |
| 2026-04-23 03:31 | 35.33483 | 75.54527 | 7546 ft | 21 kts | 161° |
| 2026-04-23 03:31 | 35.33351 | 75.54550 | 7553 ft | 17 kts | 216° |
| 2026-04-23 03:31 | 35.33282 | 75.54440 | 7562 ft | 14 kts | 236° |
| 2026-04-23 03:32 | 35.33232 | 75.54340 | 7568 ft | 13 kts | 243° |
| 2026-04-23 03:32 | 35.33184 | 75.54247 | 7573 ft | 14 kts | 236° |
| 2026-04-23 03:32 | 35.33108 | 75.54110 | 7576 ft | 24 kts | 235° |
| 2026-04-23 03:32 | 35.33034 | 75.54073 | 7575 ft | 1 kts | 134° |
| 2026-04-23 03:33 | 35.33027 | 75.54079 | 7575 ft | 0 kts | 146° |
| 2026-04-23 03:33 | 35.33000 | 75.54102 | 7575 ft | 9 kts | 144° |
| 2026-04-23 03:33 | 35.32996 | 75.54105 | 7575 ft | 0 kts | 144° |
| 2026-04-23 03:37 | 35.33008 | 75.54095 | 7574 ft | 2 kts | 144° |
| 2026-04-23 03:38 | 35.33020 | 75.54085 | 7574 ft | 2 kts | 144° |
| 2026-04-23 03:38 | 35.33027 | 75.54078 | 7574 ft | 0 kts | 144° |